CYCD

Nanaimo Airport

Airport
ICAO code
CYCD
IATA Code
YCD
Summary
ICAO Region
NAT
ICAO Territory
Location

Cassidy, British Columbia

Serving
Nanaimo
Elevation
92 ft
Coordinates
49° 3' 16" N , 123° 52' 12" W
KCC
Metar
CYCD 232000Z 09008KT 060V140 30SM FEW027 FEW240 16/07 A3008 RMK CF1CI2 CF TR SLP189

Privately owned and operated regional airport located 7 nm south southeast of Nanaimo, British Columbia, Canada.

Runways

Designator Length Width Surface Rops
16/34 1524 61 ASP Yes/Yes

Airport map

Aerial View

SKYbrary Partners:

Safety knowledge contributed by: